Nearby METAR Reports

 

KBGR - Bangor, Maine, USA
Distance from station: E 5mi, 8km
Updated: Sun, 24-Jun-2018 1:53pm EDT
Mostly cloudy
Mostly cloudy
 Wind from varies
Wind: varies 6 mph , 9 km/h
Temperature: 72°F , 22°C
Dew Point: 54°F , 12°C
Humidity: 53%
Barometer: 29.78 inHg , 1008.5 hPa
Clouds: Mostly cloudy
Visibility: 10 miles , 16 km
Cloud details: Few Clouds 4500 ft
Mostly cloudy 12000 ft
Mostly cloudy 25000 ft
2018/06/24 17:53 KBGR 241753Z VRB05KT 10SM FEW045 BKN120 BKN250 22/12 A2978 RMK AO2 SLP083 T02220122 10228 20133 56005
KBHB - Bar Harbor, Maine, USA
Distance from station: SE 37mi, 59km
Updated: Sun, 24-Jun-2018 1:56pm EDT
Overcast
Overcast
 Wind from S
Wind: S 10 mph , 17 km/h
Temperature: 66°F , 19°C
Dew Point: 59°F , 15°C
Humidity: 78%
Barometer: 29.78 inHg , 1008.5 hPa
Clouds: Overcast
Visibility: 10 miles , 16 km
Cloud details: Partly cloudy 2300 ft
Overcast 8000 ft
2018/06/24 17:56 KBHB 241756Z AUTO 19009KT 10SM SCT023 OVC080 19/15 A2978 RMK AO2 SLP090 T01940150 10200 20133 58009 $
 
KWVL - Waterville, Maine, USA
Distance from station: WSW 42mi, 68km
Updated: Sun, 24-Jun-2018 1:56pm EDT
Mostly cloudy
Mostly cloudy
 Wind from N
Wind: N 6 mph , 9 km/h
Temperature: 72°F , 22°C
Dew Point: 55°F , 13°C
Humidity: 57%
Barometer: 29.76 inHg , 1007.8 hPa
Clouds: Mostly cloudy
Visibility: 10 miles , 16 km
Cloud details: Mostly cloudy 4000 ft
2018/06/24 17:56 KWVL 241756Z AUTO 01005KT 10SM BKN040 22/13 A2976 RMK AO2 SLP102 T02170133 10228 20133 58008
KRKD - Rockland/Knox, Maine, USA
Distance from station: S 52mi, 84km
Updated: Sun, 24-Jun-2018 1:56pm EDT
Mostly cloudy
Mostly cloudy
 Wind from S
Wind: S 8 mph , 13 km/h
Temperature: 70°F , 21°C
Dew Point: 61°F , 16°C
Humidity: 73%
Barometer: 29.78 inHg , 1008.5 hPa
Clouds: Mostly cloudy
Visibility: 10 miles , 16 km
Cloud details: Few Clouds 2500 ft
Mostly cloudy 8000 ft
2018/06/24 17:56 KRKD 241756Z AUTO 19007KT 10SM FEW025 BKN080 21/16 A2978 RMK AO2 SLP085 T02060156 10206 20156 58009
 
KAUG - Augusta, Maine, USA
Distance from station: SW 55mi, 89km
Updated: Sun, 24-Jun-2018 1:53pm EDT
Overcast
Overcast
 Wind from NNW
Wind: NNW 7 mph , 11 km/h
Temperature: 72°F , 22°C
Dew Point: 57°F , 14°C
Humidity: 61%
Barometer: 29.79 inHg , 1008.8 hPa
Clouds: Overcast
Visibility: 10 miles , 16 km
Cloud details: Overcast 3500 ft
2018/06/24 17:53 KAUG 241753Z AUTO 34006KT 10SM OVC035 22/14 A2979 RMK AO2 SLP088 T02170144 10222 20133 58007
KGNR - Greenville, Maine, USA
Distance from station: NW 55mi, 89km
Updated: Sun, 24-Jun-2018 1:56pm EDT

 Wind from NW
Wind: NW 7 mph , 11 km/h
Temperature: 64°F , 18°C
Dew Point: 57°F , 14°C
Humidity: 78%
Barometer: 29.80 inHg , 1009.1 hPa
2018/06/24 17:56 KGNR 241756Z AUTO 32006KT 18/14 A2980 RMK AO1 SLP091 T01780139 10183 20133 51006
 
KMLT - Millinocket, Maine, USA
Distance from station: N 59mi, 95km
Updated: Sun, 24-Jun-2018 1:53pm EDT
Overcast
Overcast
 Wind from WNW
Wind: WNW 3 mph , 6 km/h
Temperature: 72°F , 22°C
Dew Point: 55°F , 13°C
Humidity: 57%
Barometer: 29.79 inHg , 1008.8 hPa
Clouds: Overcast
Visibility: 10 miles , 16 km
Cloud details: Few Clouds 2900 ft
Overcast 7000 ft
2018/06/24 17:53 KMLT 241753Z AUTO 30003KT 10SM FEW029 OVC070 22/13 A2979 RMK AO2 SLP090 60000 T02170133 10217 20139 50003
KIWI - Wiscasset, Maine, USA
Distance from station: SW 70mi, 113km
Updated: Sun, 24-Jun-2018 2:21pm EDT
Overcast
Overcast
 Wind from SE
Wind: SE 8 mph , 13 km/h
Temperature: 70°F , 21°C
Dew Point: 59°F , 15°C
Humidity: 69%
Barometer: 29.79 inHg , 1008.8 hPa
Clouds: Overcast
Visibility: 10 miles , 16 km
Cloud details: Partly cloudy 2800 ft
Overcast 8500 ft
2018/06/24 18:21 KIWI 241821Z AUTO 13007KT 10SM SCT028 OVC085 21/15 A2979 RMK AO2 T02110150
 
CWSS - St. Stephen (mar, New Brunswick, Canada
Distance from station: ENE 86mi, 138km
Updated: Sun, 24-Jun-2018 2:00pm EDT

 Wind from WNW
Wind: WNW 5 mph , 7 km/h
Temperature: 72°F , 22°C
Dew Point: 55°F , 13°C
Humidity: 57%
2018/06/24 18:00 CWSS 241800Z AUTO 29004KT 22/13 RMK AO1 SLP074 T02210131 58002
KLEW - Auburn/Lewiston, Maine, USA
Distance from station: SW 86mi, 138km
Updated: Sun, 24-Jun-2018 1:56pm EDT
Overcast
Overcast
 Wind from WNW
Wind: WNW 3 mph , 6 km/h
Temperature: 70°F , 21°C
Dew Point: 61°F , 16°C
Humidity: 73%
Barometer: 29.79 inHg , 1008.8 hPa
Clouds: Overcast
Visibility: 10 miles , 16 km
Cloud details: Overcast 2900 ft
2018/06/24 17:56 KLEW 241756Z AUTO 30003KT 10SM OVC029 21/16 A2979 RMK AO2 SLP102 T02110156 10217 20133 56011
 
KHUL - Houlton, Maine, USA
Distance from station: NNE 105mi, 169km
Updated: Sun, 24-Jun-2018 1:53pm EDT
Overcast
Overcast
 Wind from NNW
Wind: NNW 8 mph , 13 km/h
Temperature: 72°F , 22°C
Dew Point: 57°F , 14°C
Humidity: 61%
Barometer: 29.75 inHg , 1007.5 hPa
Clouds: Overcast
Visibility: 10 miles , 16 km
Cloud details: Overcast 9500 ft
2018/06/24 17:53 KHUL 241753Z AUTO 34007KT 10SM OVC095 22/14 A2975 RMK AO2 SLP075 60000 T02170139 10217 20139 53004
KPWM - Portland, Maine, USA
Distance from station: SW 105mi, 170km
Updated: Sun, 24-Jun-2018 2:19pm EDT
Mostly cloudy
Mostly cloudy
 Wind from SSE
Wind: SSE 10 mph , 17 km/h
Temperature: 70°F , 21°C
Dew Point: 61°F , 16°C
Humidity: 73%
Barometer: 29.79 inHg , 1008.8 hPa
Clouds: Mostly cloudy
Visibility: 10 miles , 16 km
Cloud details: Mostly cloudy 2600 ft
Mostly cloudy 10000 ft
Mostly cloudy 16000 ft
2018/06/24 18:19 KPWM 241819Z 15009KT 10SM BKN026 BKN100 BKN160 21/16 A2979 RMK AO2 T02060156 $
 
KBML - Berlin, New Hampshire, USA
Distance from station: W 113mi, 181km
Updated: Sun, 24-Jun-2018 1:52pm EDT
Overcast
Overcast
 Wind from calm
Wind: Calm
Temperature: 66°F , 19°C
Dew Point: 57°F , 14°C
Humidity: 73%
Barometer: 29.82 inHg , 1009.8 hPa
Clouds: Overcast
Visibility: 10 miles , 16 km
Cloud details: Few Clouds 1900 ft
Overcast 2600 ft
2018/06/24 17:52 KBML 241752Z AUTO 00000KT 10SM FEW019 OVC026 19/14 A2982 RMK AO2 SLP099 T01890144 10189 20139 56004
KIZG - Fryeburg, Maine, USA
Distance from station: WSW 116mi, 186km
Updated: Sun, 24-Jun-2018 1:54pm EDT
Overcast
Overcast
 Wind from calm
Wind: Calm
Temperature: 70°F , 21°C
Dew Point: 63°F , 17°C
Humidity: 78%
Barometer: 29.80 inHg , 1009.1 hPa
Clouds: Overcast
Visibility: 10 miles , 16 km
Cloud details: Mostly cloudy 1800 ft
Mostly cloudy 4300 ft
Overcast 5000 ft
2018/06/24 17:54 KIZG 241754Z AUTO 00000KT 10SM BKN018 BKN043 OVC050 21/17 A2980 RMK AO2 SLP093 T02060167 10211 20128 58007
 
CWPE - Point Lepreau, New Brunswick, Canada
Distance from station: E 121mi, 195km
Updated: Sun, 24-Jun-2018 2:00pm EDT

 Wind from WSW
Wind: WSW 7 mph , 11 km/h
Temperature: 63°F , 17°C
Dew Point: 59°F , 15°C
Humidity: 88%
2018/06/24 18:00 CWPE 241800Z AUTO 24006KT 17/15 RMK AO1 8005 SLP071 T01740147 50006
KMWN - Mount Washington, New Hampshire, USA
Distance from station: WSW 123mi, 198km
Updated: Sun, 24-Jun-2018 1:53pm EDT
Fog, Overcast
Fog, Overcast
 Wind from W
Wind: W 21 mph , 33 km/h
Temperature: 50°F , 10°C
Wind Chill: 43°F , 6°C
Dew Point: 50°F , 10°C
Humidity: 100%
Summary: Fog
Clouds: Overcast
Visibility: 1/16 mile , 0.1 km
Cloud details: Overcast 100 ft
2018/06/24 17:53 KMWN 241753Z 28018KT 1/16SM FG VV001 10/10 RMK 60000 10106 20084
 
KPQI - Presque Isle, Maine, USA
Distance from station: ESE 136mi, 219km
Updated: Sun, 24-Jun-2018 1:56pm EDT
Clear
Clear
 Wind from NNW
Wind: NNW 12 mph , 19 km/h
Temperature: 73°F , 23°C
Dew Point: 54°F , 12°C
Humidity: 50%
Barometer: 29.77 inHg , 1008.1 hPa
Clouds: Clear
Visibility: 10 miles , 16 km
2018/06/24 17:56 KPQI 241756Z AUTO 33010KT 280V020 10SM CLR 23/12 A2977 RMK AO2 SLP118 T02280117 10228 20144 50005
KCAR - Caribou, Maine, USA
Distance from station: NNE 148mi, 238km
Updated: Sun, 24-Jun-2018 1:54pm EDT
Mostly cloudy
Mostly cloudy
 Wind from N
Wind: N 9 mph , 15 km/h, Gust: 16 mph , 26 km/h
Temperature: 75°F , 24°C
Dew Point: 52°F , 11°C
Humidity: 44%
Barometer: 29.75 inHg , 1007.5 hPa
Clouds: Mostly cloudy
Visibility: 10 miles , 16 km
Cloud details: Mostly cloudy 4800 ft
2018/06/24 17:54 KCAR 241754Z AUTO 36008G14KT 10SM BKN048 24/11 A2975 RMK AO2 SLP075 T02390106 10239 20144 50005